sensor_id;sensor_type;location;lat;lon;timestamp;P1;durP1;ratioP1;P2;durP2;ratioP2
68214;SDS011;55036;52.138;5.236;2024-03-23T00:54:45;26.52;;;7.35;;
68214;SDS011;55036;52.138;5.236;2024-03-23T00:57:11;22.95;;;7.38;;
68214;SDS011;55036;52.138;5.236;2024-03-23T00:59:37;17.27;;;6.90;;
68214;SDS011;55036;52.138;5.236;2024-03-23T01:02:02;23.48;;;7.13;;
68214;SDS011;55036;52.138;5.236;2024-03-23T01:04:28;20.73;;;6.30;;
68214;SDS011;55036;52.138;5.236;2024-03-23T01:06:54;21.67;;;7.30;;
68214;SDS011;55036;52.138;5.236;2024-03-23T01:09:20;15.77;;;6.82;;
68214;SDS011;55036;52.138;5.236;2024-03-23T01:11:46;26.90;;;6.72;;
68214;SDS011;55036;52.138;5.236;2024-03-23T01:14:11;23.27;;;6.95;;
68214;SDS011;55036;52.138;5.236;2024-03-23T01:16:37;19.40;;;6.20;;
68214;SDS011;55036;52.138;5.236;2024-03-23T01:19:03;26.23;;;6.82;;
68214;SDS011;55036;52.138;5.236;2024-03-23T01:21:29;18.98;;;6.18;;
68214;SDS011;55036;52.138;5.236;2024-03-23T01:23:54;18.38;;;5.65;;
68214;SDS011;55036;52.138;5.236;2024-03-23T01:26:20;26.23;;;6.68;;
68214;SDS011;55036;52.138;5.236;2024-03-23T01:28:46;21.52;;;5.97;;
68214;SDS011;55036;52.138;5.236;2024-03-23T01:31:12;24.17;;;5.65;;
68214;SDS011;55036;52.138;5.236;2024-03-23T01:33:37;18.10;;;4.82;;
68214;SDS011;55036;52.138;5.236;2024-03-23T01:36:03;23.05;;;5.97;;
68214;SDS011;55036;52.138;5.236;2024-03-23T01:38:30;25.52;;;6.18;;
68214;SDS011;55036;52.138;5.236;2024-03-23T01:40:56;18.63;;;5.30;;
68214;SDS011;55036;52.138;5.236;2024-03-23T01:43:25;16.55;;;4.82;;
68214;SDS011;55036;52.138;5.236;2024-03-23T01:45:51;22.27;;;5.65;;
68214;SDS011;55036;52.138;5.236;2024-03-23T01:48:19;17.02;;;5.20;;
68214;SDS011;55036;52.138;5.236;2024-03-23T01:50:46;16.55;;;5.30;;
68214;SDS011;55036;52.138;5.236;2024-03-23T01:53:13;16.85;;;6.07;;
68214;SDS011;55036;52.138;5.236;2024-03-23T01:55:43;13.35;;;4.82;;
68214;SDS011;55036;52.138;5.236;2024-03-23T01:58:09;18.45;;;5.43;;
68214;SDS011;55036;52.138;5.236;2024-03-23T02:00:34;17.30;;;4.85;;
68214;SDS011;55036;52.138;5.236;2024-03-23T02:03:00;21.98;;;5.55;;
68214;SDS011;55036;52.138;5.236;2024-03-23T02:05:26;19.17;;;5.25;;
68214;SDS011;55036;52.138;5.236;2024-03-23T02:07:52;22.98;;;5.38;;
68214;SDS011;55036;52.138;5.236;2024-03-23T02:10:18;20.25;;;5.03;;
68214;SDS011;55036;52.138;5.236;2024-03-23T02:12:44;21.83;;;4.75;;
68214;SDS011;55036;52.138;5.236;2024-03-23T02:15:10;17.00;;;4.53;;
68214;SDS011;55036;52.138;5.236;2024-03-23T02:17:35;23.23;;;4.70;;
68214;SDS011;55036;52.138;5.236;2024-03-23T02:20:02;14.00;;;4.13;;
68214;SDS011;55036;52.138;5.236;2024-03-23T02:22:37;14.48;;;4.65;;
68214;SDS011;55036;52.138;5.236;2024-03-23T02:25:04;16.83;;;4.18;;
68214;SDS011;55036;52.138;5.236;2024-03-23T02:27:30;18.50;;;4.93;;
68214;SDS011;55036;52.138;5.236;2024-03-23T02:29:56;15.27;;;3.85;;
68214;SDS011;55036;52.138;5.236;2024-03-23T02:32:22;21.20;;;5.03;;
68214;SDS011;55036;52.138;5.236;2024-03-23T02:34:48;20.95;;;4.38;;
68214;SDS011;55036;52.138;5.236;2024-03-23T02:37:14;18.05;;;4.25;;
68214;SDS011;55036;52.138;5.236;2024-03-23T02:39:39;20.60;;;3.92;;
68214;SDS011;55036;52.138;5.236;2024-03-23T02:42:05;15.65;;;4.40;;
68214;SDS011;55036;52.138;5.236;2024-03-23T02:44:31;19.10;;;4.22;;
68214;SDS011;55036;52.138;5.236;2024-03-23T02:46:57;14.25;;;4.60;;
68214;SDS011;55036;52.138;5.236;2024-03-23T02:49:22;25.98;;;4.97;;
68214;SDS011;55036;52.138;5.236;2024-03-23T02:51:48;16.45;;;4.38;;
68214;SDS011;55036;52.138;5.236;2024-03-23T02:54:14;18.02;;;6.22;;
68214;SDS011;55036;52.138;5.236;2024-03-23T02:56:40;18.40;;;3.75;;
68214;SDS011;55036;52.138;5.236;2024-03-23T02:59:06;20.35;;;3.83;;
68214;SDS011;55036;52.138;5.236;2024-03-23T03:01:31;15.32;;;4.18;;
68214;SDS011;55036;52.138;5.236;2024-03-23T03:03:57;20.95;;;3.85;;
68214;SDS011;55036;52.138;5.236;2024-03-23T03:06:26;15.35;;;4.63;;
68214;SDS011;55036;52.138;5.236;2024-03-23T03:08:52;11.73;;;3.95;;
68214;SDS011;55036;52.138;5.236;2024-03-23T03:11:18;10.18;;;2.85;;
68214;SDS011;55036;52.138;5.236;2024-03-23T03:13:44;10.18;;;3.33;;
68214;SDS011;55036;52.138;5.236;2024-03-23T03:16:10;14.52;;;3.08;;
68214;SDS011;55036;52.138;5.236;2024-03-23T03:18:36;19.48;;;4.07;;
68214;SDS011;55036;52.138;5.236;2024-03-23T03:21:02;16.92;;;3.58;;
68214;SDS011;55036;52.138;5.236;2024-03-23T03:23:30;16.10;;;3.80;;
68214;SDS011;55036;52.138;5.236;2024-03-23T03:25:56;11.50;;;3.58;;
68214;SDS011;55036;52.138;5.236;2024-03-23T03:28:23;16.33;;;3.20;;
68214;SDS011;55036;52.138;5.236;2024-03-23T03:30:49;9.05;;;2.88;;
68214;SDS011;55036;52.138;5.236;2024-03-23T03:33:14;14.45;;;3.17;;
68214;SDS011;55036;52.138;5.236;2024-03-23T03:35:40;9.18;;;3.00;;
68214;SDS011;55036;52.138;5.236;2024-03-23T03:38:06;16.73;;;4.38;;
68214;SDS011;55036;52.138;5.236;2024-03-23T03:40:31;10.93;;;3.45;;
68214;SDS011;55036;52.138;5.236;2024-03-23T03:42:57;13.93;;;3.25;;
68214;SDS011;55036;52.138;5.236;2024-03-23T03:45:23;14.05;;;4.05;;
68214;SDS011;55036;52.138;5.236;2024-03-23T03:47:49;11.30;;;3.40;;
68214;SDS011;55036;52.138;5.236;2024-03-23T03:50:14;12.15;;;3.67;;
68214;SDS011;55036;52.138;5.236;2024-03-23T03:52:40;14.98;;;4.10;;
68214;SDS011;55036;52.138;5.236;2024-03-23T03:55:11;15.30;;;3.78;;
68214;SDS011;55036;52.138;5.236;2024-03-23T03:57:38;14.52;;;3.55;;
68214;SDS011;55036;52.138;5.236;2024-03-23T04:00:04;14.93;;;2.90;;
68214;SDS011;55036;52.138;5.236;2024-03-23T04:02:31;7.30;;;2.88;;
68214;SDS011;55036;52.138;5.236;2024-03-23T04:04:56;8.68;;;3.35;;
68214;SDS011;55036;52.138;5.236;2024-03-23T04:07:22;15.75;;;3.95;;
68214;SDS011;55036;52.138;5.236;2024-03-23T04:09:49;14.93;;;3.85;;
68214;SDS011;55036;52.138;5.236;2024-03-23T04:12:15;14.05;;;2.97;;
68214;SDS011;55036;52.138;5.236;2024-03-23T04:14:41;13.63;;;3.20;;
68214;SDS011;55036;52.138;5.236;2024-03-23T04:17:07;13.20;;;3.30;;
68214;SDS011;55036;52.138;5.236;2024-03-23T04:19:33;14.05;;;3.10;;
68214;SDS011;55036;52.138;5.236;2024-03-23T04:21:58;13.98;;;3.40;;
68214;SDS011;55036;52.138;5.236;2024-03-23T04:24:24;7.22;;;2.47;;
68214;SDS011;55036;52.138;5.236;2024-03-23T04:26:51;13.70;;;3.63;;
68214;SDS011;55036;52.138;5.236;2024-03-23T04:29:17;14.85;;;3.20;;
68214;SDS011;55036;52.138;5.236;2024-03-23T04:31:43;7.70;;;2.80;;
68214;SDS011;55036;52.138;5.236;2024-03-23T04:34:09;15.98;;;3.72;;
68214;SDS011;55036;52.138;5.236;2024-03-23T04:36:35;8.10;;;2.58;;
68214;SDS011;55036;52.138;5.236;2024-03-23T04:39:00;11.55;;;2.85;;
68214;SDS011;55036;52.138;5.236;2024-03-23T04:41:26;11.10;;;3.13;;
68214;SDS011;55036;52.138;5.236;2024-03-23T04:43:52;9.98;;;2.72;;
68214;SDS011;55036;52.138;5.236;2024-03-23T04:46:18;7.15;;;2.50;;
68214;SDS011;55036;52.138;5.236;2024-03-23T04:48:44;9.57;;;2.80;;
68214;SDS011;55036;52.138;5.236;2024-03-23T04:51:10;9.02;;;2.50;;
68214;SDS011;55036;52.138;5.236;2024-03-23T04:53:37;7.30;;;2.40;;
68214;SDS011;55036;52.138;5.236;2024-03-23T04:56:03;15.90;;;2.85;;
68214;SDS011;55036;52.138;5.236;2024-03-23T04:58:29;10.85;;;2.60;;
68214;SDS011;55036;52.138;5.236;2024-03-23T05:00:55;10.50;;;2.75;;
68214;SDS011;55036;52.138;5.236;2024-03-23T05:03:22;10.68;;;3.40;;
68214;SDS011;55036;52.138;5.236;2024-03-23T05:05:49;10.48;;;2.50;;
68214;SDS011;55036;52.138;5.236;2024-03-23T05:08:15;8.90;;;2.10;;
68214;SDS011;55036;52.138;5.236;2024-03-23T05:10:42;6.63;;;2.38;;
68214;SDS011;55036;52.138;5.236;2024-03-23T05:13:08;11.02;;;2.20;;
68214;SDS011;55036;52.138;5.236;2024-03-23T05:15:34;13.10;;;2.78;;
68214;SDS011;55036;52.138;5.236;2024-03-23T05:18:00;8.02;;;1.95;;
68214;SDS011;55036;52.138;5.236;2024-03-23T05:20:26;7.60;;;2.33;;
68214;SDS011;55036;52.138;5.236;2024-03-23T05:22:52;9.98;;;2.47;;
68214;SDS011;55036;52.138;5.236;2024-03-23T05:25:18;7.30;;;2.20;;
68214;SDS011;55036;52.138;5.236;2024-03-23T05:27:44;7.82;;;2.13;;
68214;SDS011;55036;52.138;5.236;2024-03-23T05:30:09;12.50;;;2.17;;
68214;SDS011;55036;52.138;5.236;2024-03-23T05:32:36;10.55;;;2.30;;
68214;SDS011;55036;52.138;5.236;2024-03-23T05:35:01;8.57;;;2.20;;
68214;SDS011;55036;52.138;5.236;2024-03-23T05:37:27;7.00;;;2.50;;
68214;SDS011;55036;52.138;5.236;2024-03-23T05:39:53;12.63;;;1.95;;
68214;SDS011;55036;52.138;5.236;2024-03-23T05:42:19;7.80;;;2.00;;
68214;SDS011;55036;52.138;5.236;2024-03-23T05:44:45;14.95;;;2.35;;
68214;SDS011;55036;52.138;5.236;2024-03-23T05:47:11;5.13;;;2.22;;
68214;SDS011;55036;52.138;5.236;2024-03-23T05:49:41;6.07;;;2.15;;
68214;SDS011;55036;52.138;5.236;2024-03-23T05:52:08;6.55;;;2.13;;
68214;SDS011;55036;52.138;5.236;2024-03-23T05:54:36;9.68;;;2.05;;
68214;SDS011;55036;52.138;5.236;2024-03-23T05:57:03;17.23;;;2.60;;
68214;SDS011;55036;52.138;5.236;2024-03-23T05:59:28;7.40;;;1.85;;
68214;SDS011;55036;52.138;5.236;2024-03-23T06:01:54;8.80;;;1.70;;
68214;SDS011;55036;52.138;5.236;2024-03-23T06:04:20;8.88;;;1.85;;
68214;SDS011;55036;52.138;5.236;2024-03-23T06:06:49;10.88;;;2.53;;
68214;SDS011;55036;52.138;5.236;2024-03-23T06:09:17;8.60;;;1.98;;
68214;SDS011;55036;52.138;5.236;2024-03-23T06:11:43;6.35;;;1.40;;
68214;SDS011;55036;52.138;5.236;2024-03-23T06:14:09;13.73;;;2.28;;
68214;SDS011;55036;52.138;5.236;2024-03-23T06:16:34;11.40;;;2.03;;
68214;SDS011;55036;52.138;5.236;2024-03-23T06:19:00;8.75;;;1.80;;
68214;SDS011;55036;52.138;5.236;2024-03-23T06:21:29;8.73;;;2.35;;
68214;SDS011;55036;52.138;5.236;2024-03-23T06:23:54;8.25;;;1.75;;
68214;SDS011;55036;52.138;5.236;2024-03-23T06:26:20;8.20;;;2.03;;
68214;SDS011;55036;52.138;5.236;2024-03-23T06:28:47;12.90;;;2.75;;
68214;SDS011;55036;52.138;5.236;2024-03-23T06:31:13;11.25;;;1.80;;
68214;SDS011;55036;52.138;5.236;2024-03-23T06:33:39;8.73;;;1.90;;
68214;SDS011;55036;52.138;5.236;2024-03-23T06:36:06;8.65;;;1.85;;
68214;SDS011;55036;52.138;5.236;2024-03-23T06:38:35;9.10;;;2.17;;
68214;SDS011;55036;52.138;5.236;2024-03-23T06:41:07;9.30;;;2.20;;
68214;SDS011;55036;52.138;5.236;2024-03-23T06:43:33;6.88;;;2.08;;
68214;SDS011;55036;52.138;5.236;2024-03-23T06:45:59;9.90;;;2.45;;
68214;SDS011;55036;52.138;5.236;2024-03-23T06:48:25;12.90;;;2.38;;
68214;SDS011;55036;52.138;5.236;2024-03-23T06:50:55;11.32;;;2.20;;
68214;SDS011;55036;52.138;5.236;2024-03-23T06:53:23;8.07;;;2.05;;
68214;SDS011;55036;52.138;5.236;2024-03-23T06:55:50;14.63;;;2.70;;
68214;SDS011;55036;52.138;5.236;2024-03-23T06:58:18;12.85;;;3.15;;
68214;SDS011;55036;52.138;5.236;2024-03-23T07:00:44;10.48;;;2.17;;
68214;SDS011;55036;52.138;5.236;2024-03-23T07:03:10;9.82;;;2.33;;
68214;SDS011;55036;52.138;5.236;2024-03-23T07:05:36;10.93;;;2.42;;
68214;SDS011;55036;52.138;5.236;2024-03-23T07:08:02;9.25;;;2.72;;
68214;SDS011;55036;52.138;5.236;2024-03-23T07:10:28;12.90;;;2.45;;
68214;SDS011;55036;52.138;5.236;2024-03-23T07:12:53;11.98;;;2.78;;
68214;SDS011;55036;52.138;5.236;2024-03-23T07:15:19;8.73;;;3.20;;
68214;SDS011;55036;52.138;5.236;2024-03-23T07:17:48;14.55;;;3.22;;
68214;SDS011;55036;52.138;5.236;2024-03-23T07:20:14;11.18;;;3.70;;
68214;SDS011;55036;52.138;5.236;2024-03-23T07:22:40;10.95;;;2.92;;
68214;SDS011;55036;52.138;5.236;2024-03-23T07:25:05;13.43;;;2.97;;
68214;SDS011;55036;52.138;5.236;2024-03-23T07:27:32;14.43;;;3.17;;
68214;SDS011;55036;52.138;5.236;2024-03-23T07:29:59;12.45;;;2.92;;
68214;SDS011;55036;52.138;5.236;2024-03-23T07:32:26;9.23;;;2.65;;
68214;SDS011;55036;52.138;5.236;2024-03-23T07:34:52;9.85;;;2.83;;
68214;SDS011;55036;52.138;5.236;2024-03-23T07:37:18;16.85;;;3.03;;
68214;SDS011;55036;52.138;5.236;2024-03-23T07:39:44;9.60;;;2.13;;
68214;SDS011;55036;52.138;5.236;2024-03-23T07:42:10;8.15;;;2.65;;
68214;SDS011;55036;52.138;5.236;2024-03-23T07:44:35;9.48;;;2.83;;
68214;SDS011;55036;52.138;5.236;2024-03-23T07:47:01;13.15;;;2.22;;
68214;SDS011;55036;52.138;5.236;2024-03-23T07:49:27;11.13;;;2.63;;
68214;SDS011;55036;52.138;5.236;2024-03-23T07:51:53;10.50;;;2.20;;
68214;SDS011;55036;52.138;5.236;2024-03-23T07:54:19;9.68;;;2.65;;
68214;SDS011;55036;52.138;5.236;2024-03-23T07:56:45;12.75;;;2.97;;
68214;SDS011;55036;52.138;5.236;2024-03-23T07:59:10;10.65;;;2.13;;
68214;SDS011;55036;52.138;5.236;2024-03-23T08:01:36;7.28;;;1.60;;
68214;SDS011;55036;52.138;5.236;2024-03-23T08:04:02;15.95;;;2.45;;
68214;SDS011;55036;52.138;5.236;2024-03-23T08:06:28;9.45;;;2.03;;
68214;SDS011;55036;52.138;5.236;2024-03-23T08:08:54;10.77;;;1.80;;
68214;SDS011;55036;52.138;5.236;2024-03-23T08:11:27;11.38;;;2.63;;
68214;SDS011;55036;52.138;5.236;2024-03-23T08:13:54;7.65;;;1.60;;
68214;SDS011;55036;52.138;5.236;2024-03-23T08:16:20;8.52;;;1.95;;
68214;SDS011;55036;52.138;5.236;2024-03-23T08:18:46;7.63;;;1.83;;
68214;SDS011;55036;52.138;5.236;2024-03-23T08:21:12;10.25;;;2.42;;
68214;SDS011;55036;52.138;5.236;2024-03-23T08:23:38;8.93;;;2.13;;
68214;SDS011;55036;52.138;5.236;2024-03-23T08:28:31;9.65;;;1.42;;
68214;SDS011;55036;52.138;5.236;2024-03-23T08:31:01;10.05;;;2.03;;
68214;SDS011;55036;52.138;5.236;2024-03-23T08:33:28;8.77;;;1.85;;
68214;SDS011;55036;52.138;5.236;2024-03-23T08:36:02;10.10;;;1.52;;
68214;SDS011;55036;52.138;5.236;2024-03-23T08:38:29;10.23;;;1.73;;
68214;SDS011;55036;52.138;5.236;2024-03-23T08:41:05;12.32;;;1.98;;
68214;SDS011;55036;52.138;5.236;2024-03-23T08:43:33;8.30;;;2.03;;
68214;SDS011;55036;52.138;5.236;2024-03-23T08:46:03;10.98;;;3.72;;
68214;SDS011;55036;52.138;5.236;2024-03-23T08:48:30;4.07;;;1.42;;
68214;SDS011;55036;52.138;5.236;2024-03-23T08:51:02;9.30;;;1.80;;
68214;SDS011;55036;52.138;5.236;2024-03-23T08:53:28;11.38;;;1.83;;
68214;SDS011;55036;52.138;5.236;2024-03-23T08:55:55;10.25;;;1.73;;
68214;SDS011;55036;52.138;5.236;2024-03-23T08:58:22;5.50;;;1.13;;
68214;SDS011;55036;52.138;5.236;2024-03-23T09:00:49;10.45;;;2.05;;
68214;SDS011;55036;52.138;5.236;2024-03-23T09:03:21;11.85;;;2.67;;
68214;SDS011;55036;52.138;5.236;2024-03-23T09:05:48;7.63;;;1.48;;
68214;SDS011;55036;52.138;5.236;2024-03-23T09:08:14;7.60;;;1.38;;
68214;SDS011;55036;52.138;5.236;2024-03-23T09:10:40;10.00;;;2.33;;
68214;SDS011;55036;52.138;5.236;2024-03-23T09:13:07;8.32;;;1.67;;
68214;SDS011;55036;52.138;5.236;2024-03-23T09:15:34;7.38;;;1.80;;
68214;SDS011;55036;52.138;5.236;2024-03-23T09:18:00;10.75;;;1.63;;
68214;SDS011;55036;52.138;5.236;2024-03-23T09:20:26;5.97;;;1.20;;
68214;SDS011;55036;52.138;5.236;2024-03-23T09:22:52;5.32;;;1.60;;
68214;SDS011;55036;52.138;5.236;2024-03-23T09:25:18;10.40;;;1.65;;
68214;SDS011;55036;52.138;5.236;2024-03-23T09:27:47;7.28;;;1.52;;
68214;SDS011;55036;52.138;5.236;2024-03-23T09:30:13;9.70;;;1.67;;
68214;SDS011;55036;52.138;5.236;2024-03-23T09:32:41;6.88;;;1.67;;
68214;SDS011;55036;52.138;5.236;2024-03-23T09:35:08;11.10;;;2.25;;
68214;SDS011;55036;52.138;5.236;2024-03-23T09:37:34;8.18;;;2.00;;
68214;SDS011;55036;52.138;5.236;2024-03-23T09:39:59;12.25;;;1.90;;
68214;SDS011;55036;52.138;5.236;2024-03-23T09:42:25;13.30;;;2.20;;
68214;SDS011;55036;52.138;5.236;2024-03-23T09:44:51;7.22;;;2.08;;
68214;SDS011;55036;52.138;5.236;2024-03-23T09:47:18;7.65;;;1.48;;
68214;SDS011;55036;52.138;5.236;2024-03-23T09:49:43;13.10;;;2.47;;
68214;SDS011;55036;52.138;5.236;2024-03-23T09:52:10;9.55;;;1.90;;
68214;SDS011;55036;52.138;5.236;2024-03-23T09:54:36;9.85;;;1.92;;
68214;SDS011;55036;52.138;5.236;2024-03-23T09:57:01;7.88;;;2.22;;
68214;SDS011;55036;52.138;5.236;2024-03-23T09:59:29;10.68;;;1.65;;
68214;SDS011;55036;52.138;5.236;2024-03-23T10:01:54;8.25;;;1.75;;
68214;SDS011;55036;52.138;5.236;2024-03-23T10:04:37;7.05;;;1.45;;
68214;SDS011;55036;52.138;5.236;2024-03-23T10:07:12;14.73;;;2.50;;
68214;SDS011;55036;52.138;5.236;2024-03-23T10:09:40;6.45;;;1.23;;
68214;SDS011;55036;52.138;5.236;2024-03-23T10:12:09;10.57;;;2.45;;
68214;SDS011;55036;52.138;5.236;2024-03-23T10:14:37;6.85;;;1.70;;
68214;SDS011;55036;52.138;5.236;2024-03-23T10:17:19;13.15;;;2.58;;
68214;SDS011;55036;52.138;5.236;2024-03-23T10:19:49;6.38;;;1.60;;
68214;SDS011;55036;52.138;5.236;2024-03-23T10:22:17;10.50;;;1.70;;
68214;SDS011;55036;52.138;5.236;2024-03-23T10:24:44;8.25;;;1.67;;
68214;SDS011;55036;52.138;5.236;2024-03-23T10:27:15;14.73;;;2.08;;
68214;SDS011;55036;52.138;5.236;2024-03-23T10:29:43;10.38;;;2.03;;
68214;SDS011;55036;52.138;5.236;2024-03-23T10:32:10;9.60;;;1.75;;
68214;SDS011;55036;52.138;5.236;2024-03-23T10:34:37;7.93;;;1.70;;
68214;SDS011;55036;52.138;5.236;2024-03-23T10:37:03;10.23;;;1.45;;
68214;SDS011;55036;52.138;5.236;2024-03-23T10:39:31;10.32;;;1.38;;
68214;SDS011;55036;52.138;5.236;2024-03-23T10:42:00;10.75;;;1.77;;
68214;SDS011;55036;52.138;5.236;2024-03-23T10:44:30;7.53;;;1.70;;
68214;SDS011;55036;52.138;5.236;2024-03-23T10:47:00;6.10;;;1.45;;
68214;SDS011;55036;52.138;5.236;2024-03-23T10:49:31;9.40;;;1.50;;
68214;SDS011;55036;52.138;5.236;2024-03-23T10:51:59;5.67;;;1.20;;
68214;SDS011;55036;52.138;5.236;2024-03-23T10:54:26;7.38;;;1.27;;
68214;SDS011;55036;52.138;5.236;2024-03-23T10:56:56;5.75;;;1.50;;
68214;SDS011;55036;52.138;5.236;2024-03-23T10:59:23;6.25;;;1.38;;
68214;SDS011;55036;52.138;5.236;2024-03-23T11:01:53;7.85;;;2.05;;
68214;SDS011;55036;52.138;5.236;2024-03-23T11:04:29;12.82;;;2.03;;
68214;SDS011;55036;52.138;5.236;2024-03-23T11:06:56;10.18;;;1.60;;
68214;SDS011;55036;52.138;5.236;2024-03-23T11:14:45;11.98;;;1.88;;
68214;SDS011;55036;52.138;5.236;2024-03-23T11:17:11;8.57;;;2.08;;
68214;SDS011;55036;52.138;5.236;2024-03-23T11:19:37;9.05;;;1.63;;
68214;SDS011;55036;52.138;5.236;2024-03-23T11:22:03;13.50;;;2.33;;
68214;SDS011;55036;52.138;5.236;2024-03-23T11:24:33;7.40;;;1.45;;
68214;SDS011;55036;52.138;5.236;2024-03-23T11:26:59;4.60;;;1.35;;
68214;SDS011;55036;52.138;5.236;2024-03-23T11:29:29;6.85;;;1.70;;
68214;SDS011;55036;52.138;5.236;2024-03-23T11:31:55;8.38;;;2.35;;
68214;SDS011;55036;52.138;5.236;2024-03-23T11:34:21;7.22;;;1.60;;
68214;SDS011;55036;52.138;5.236;2024-03-23T11:36:47;13.63;;;1.80;;
68214;SDS011;55036;52.138;5.236;2024-03-23T11:39:16;6.78;;;1.73;;
68214;SDS011;55036;52.138;5.236;2024-03-23T11:44:19;10.15;;;1.70;;
68214;SDS011;55036;52.138;5.236;2024-03-23T11:49:20;9.57;;;1.73;;
68214;SDS011;55036;52.138;5.236;2024-03-23T11:51:47;10.30;;;1.50;;
68214;SDS011;55036;52.138;5.236;2024-03-23T11:54:13;7.85;;;1.40;;
68214;SDS011;55036;52.138;5.236;2024-03-23T11:56:39;7.72;;;1.40;;
68214;SDS011;55036;52.138;5.236;2024-03-23T11:59:06;12.52;;;1.80;;
68214;SDS011;55036;52.138;5.236;2024-03-23T12:01:32;7.82;;;1.70;;
68214;SDS011;55036;52.138;5.236;2024-03-23T12:03:58;6.63;;;1.50;;
68214;SDS011;55036;52.138;5.236;2024-03-23T12:06:24;9.82;;;2.33;;
68214;SDS011;55036;52.138;5.236;2024-03-23T12:08:50;6.15;;;1.13;;
68214;SDS011;55036;52.138;5.236;2024-03-23T12:11:16;6.70;;;1.45;;
68214;SDS011;55036;52.138;5.236;2024-03-23T12:13:43;8.32;;;1.38;;
68214;SDS011;55036;52.138;5.236;2024-03-23T12:16:20;9.35;;;1.50;;
68214;SDS011;55036;52.138;5.236;2024-03-23T12:18:50;9.27;;;1.50;;
68214;SDS011;55036;52.138;5.236;2024-03-23T12:21:20;7.32;;;1.20;;
68214;SDS011;55036;52.138;5.236;2024-03-23T12:23:48;8.75;;;1.65;;
68214;SDS011;55036;52.138;5.236;2024-03-23T12:26:15;8.77;;;1.60;;
68214;SDS011;55036;52.138;5.236;2024-03-23T12:28:43;7.85;;;1.48;;
68214;SDS011;55036;52.138;5.236;2024-03-23T12:31:08;6.47;;;1.27;;
68214;SDS011;55036;52.138;5.236;2024-03-23T12:33:35;12.30;;;1.63;;
68214;SDS011;55036;52.138;5.236;2024-03-23T12:36:01;9.80;;;1.92;;
68214;SDS011;55036;52.138;5.236;2024-03-23T12:38:26;5.35;;;1.63;;
68214;SDS011;55036;52.138;5.236;2024-03-23T12:40:52;6.15;;;1.35;;
68214;SDS011;55036;52.138;5.236;2024-03-23T12:43:18;7.13;;;1.35;;
68214;SDS011;55036;52.138;5.236;2024-03-23T12:45:47;7.82;;;1.30;;
68214;SDS011;55036;52.138;5.236;2024-03-23T12:48:14;6.97;;;1.13;;
68214;SDS011;55036;52.138;5.236;2024-03-23T12:50:40;8.90;;;1.75;;
68214;SDS011;55036;52.138;5.236;2024-03-23T12:53:06;10.30;;;1.48;;
68214;SDS011;55036;52.138;5.236;2024-03-23T12:55:31;11.85;;;1.75;;
68214;SDS011;55036;52.138;5.236;2024-03-23T12:57:59;4.20;;;1.42;;
68214;SDS011;55036;52.138;5.236;2024-03-23T13:00:25;7.22;;;1.42;;
68214;SDS011;55036;52.138;5.236;2024-03-23T13:02:51;9.15;;;1.35;;
68214;SDS011;55036;52.138;5.236;2024-03-23T13:05:17;7.45;;;1.20;;
68214;SDS011;55036;52.138;5.236;2024-03-23T13:07:42;7.75;;;1.42;;
68214;SDS011;55036;52.138;5.236;2024-03-23T13:10:08;6.38;;;1.42;;
68214;SDS011;55036;52.138;5.236;2024-03-23T13:12:34;6.70;;;1.73;;
68214;SDS011;55036;52.138;5.236;2024-03-23T13:15:00;4.47;;;1.05;;
68214;SDS011;55036;52.138;5.236;2024-03-23T13:17:29;2.47;;;0.65;;
68214;SDS011;55036;52.138;5.236;2024-03-23T13:19:54;2.90;;;0.60;;
68214;SDS011;55036;52.138;5.236;2024-03-23T13:22:21;5.53;;;0.95;;
68214;SDS011;55036;52.138;5.236;2024-03-23T13:24:47;3.38;;;0.50;;
68214;SDS011;55036;52.138;5.236;2024-03-23T13:27:13;3.17;;;0.75;;
68214;SDS011;55036;52.138;5.236;2024-03-23T13:29:38;2.60;;;0.70;;
68214;SDS011;55036;52.138;5.236;2024-03-23T13:32:04;3.83;;;0.82;;
68214;SDS011;55036;52.138;5.236;2024-03-23T13:34:31;4.63;;;0.70;;
68214;SDS011;55036;52.138;5.236;2024-03-23T13:36:58;5.80;;;0.93;;
68214;SDS011;55036;52.138;5.236;2024-03-23T13:39:24;7.95;;;1.20;;
68214;SDS011;55036;52.138;5.236;2024-03-23T13:41:52;3.63;;;0.93;;
68214;SDS011;55036;52.138;5.236;2024-03-23T13:44:18;5.15;;;0.93;;
68214;SDS011;55036;52.138;5.236;2024-03-23T13:46:44;4.53;;;1.52;;
68214;SDS011;55036;52.138;5.236;2024-03-23T13:49:29;5.80;;;1.40;;
68214;SDS011;55036;52.138;5.236;2024-03-23T13:51:59;4.47;;;1.17;;
68214;SDS011;55036;52.138;5.236;2024-03-23T13:54:25;6.70;;;1.42;;
68214;SDS011;55036;52.138;5.236;2024-03-23T13:56:52;6.40;;;1.13;;
68214;SDS011;55036;52.138;5.236;2024-03-23T13:59:19;10.18;;;1.83;;
68214;SDS011;55036;52.138;5.236;2024-03-23T14:01:46;4.95;;;1.40;;
68214;SDS011;55036;52.138;5.236;2024-03-23T14:04:12;8.77;;;1.60;;
68214;SDS011;55036;52.138;5.236;2024-03-23T14:06:39;4.93;;;1.15;;
68214;SDS011;55036;52.138;5.236;2024-03-23T14:09:05;11.95;;;1.60;;
68214;SDS011;55036;52.138;5.236;2024-03-23T14:11:34;8.18;;;1.10;;
68214;SDS011;55036;52.138;5.236;2024-03-23T14:14:02;7.40;;;1.60;;
68214;SDS011;55036;52.138;5.236;2024-03-23T14:16:29;7.30;;;1.30;;
68214;SDS011;55036;52.138;5.236;2024-03-23T14:18:58;5.75;;;1.90;;
68214;SDS011;55036;52.138;5.236;2024-03-23T14:21:24;7.78;;;1.27;;
68214;SDS011;55036;52.138;5.236;2024-03-23T14:23:50;6.18;;;1.20;;
68214;SDS011;55036;52.138;5.236;2024-03-23T14:26:16;4.95;;;1.20;;
68214;SDS011;55036;52.138;5.236;2024-03-23T14:28:42;6.07;;;1.15;;
68214;SDS011;55036;52.138;5.236;2024-03-23T14:31:08;4.35;;;0.80;;
68214;SDS011;55036;52.138;5.236;2024-03-23T14:33:39;6.70;;;1.13;;
68214;SDS011;55036;52.138;5.236;2024-03-23T14:36:11;4.93;;;1.33;;
68214;SDS011;55036;52.138;5.236;2024-03-23T14:38:41;8.10;;;1.27;;
68214;SDS011;55036;52.138;5.236;2024-03-23T14:41:07;8.30;;;1.20;;
68214;SDS011;55036;52.138;5.236;2024-03-23T14:43:33;5.13;;;0.95;;
68214;SDS011;55036;52.138;5.236;2024-03-23T14:46:15;6.18;;;1.10;;
68214;SDS011;55036;52.138;5.236;2024-03-23T14:48:45;7.82;;;1.45;;
68214;SDS011;55036;52.138;5.236;2024-03-23T14:51:11;7.07;;;1.58;;
68214;SDS011;55036;52.138;5.236;2024-03-23T14:53:38;9.32;;;1.35;;
68214;SDS011;55036;52.138;5.236;2024-03-23T14:56:06;7.25;;;1.23;;
68214;SDS011;55036;52.138;5.236;2024-03-23T14:58:32;6.45;;;0.98;;
68214;SDS011;55036;52.138;5.236;2024-03-23T15:01:03;4.63;;;1.48;;
68214;SDS011;55036;52.138;5.236;2024-03-23T15:03:35;2.50;;;0.68;;
68214;SDS011;55036;52.138;5.236;2024-03-23T15:06:05;4.57;;;1.27;;
68214;SDS011;55036;52.138;5.236;2024-03-23T15:08:31;6.13;;;0.93;;
68214;SDS011;55036;52.138;5.236;2024-03-23T15:11:00;5.93;;;1.20;;
68214;SDS011;55036;52.138;5.236;2024-03-23T15:13:33;5.28;;;1.27;;
68214;SDS011;55036;52.138;5.236;2024-03-23T15:15:59;2.90;;;0.82;;
68214;SDS011;55036;52.138;5.236;2024-03-23T15:18:25;3.78;;;1.00;;
68214;SDS011;55036;52.138;5.236;2024-03-23T15:20:54;6.30;;;0.85;;
68214;SDS011;55036;52.138;5.236;2024-03-23T15:23:21;4.85;;;1.27;;
68214;SDS011;55036;52.138;5.236;2024-03-23T15:26:00;4.93;;;1.00;;
68214;SDS011;55036;52.138;5.236;2024-03-23T15:28:27;6.32;;;1.30;;
68214;SDS011;55036;52.138;5.236;2024-03-23T15:31:05;5.28;;;1.20;;
68214;SDS011;55036;52.138;5.236;2024-03-23T15:33:32;5.28;;;1.40;;
68214;SDS011;55036;52.138;5.236;2024-03-23T15:35:58;12.52;;;1.55;;
68214;SDS011;55036;52.138;5.236;2024-03-23T15:38:25;7.70;;;1.83;;
68214;SDS011;55036;52.138;5.236;2024-03-23T15:40:51;9.02;;;1.42;;
68214;SDS011;55036;52.138;5.236;2024-03-23T15:43:17;5.78;;;1.10;;
68214;SDS011;55036;52.138;5.236;2024-03-23T15:45:43;5.70;;;1.25;;